Time;durP1;ratioP1;P1;durP2;ratioP2;P2;SDS_P1;SDS_P2;PMS_P1;PMS_P2;Temp;Humidity;BMP_temperature;BMP_pressure;BME280_temperature;BME280_humidity;BME280_pressure;Samples;Min_cycle;Max_cycle;Signal;HPM_P1;HPM_P2
2023/10/21 00:00:52;;;;;;;14.63;9.35;;;;;;;8.27;100.00;98350.34;1741290;82;25432;-62
2023/10/21 00:03:20;;;;;;;14.97;10.20;;;;;;;8.28;100.00;98351.34;1740276;82;25724;-63
2023/10/21 00:05:47;;;;;;;14.13;10.20;;;;;;;8.27;100.00;98343.03;1740056;82;25555;-63
2023/10/21 00:08:14;;;;;;;17.95;9.95;;;;;;;8.28;100.00;98346.53;1741155;82;27662;-62
2023/10/21 00:10:40;;;;;;;14.28;9.68;;;;;;;8.28;100.00;98349.23;1735156;81;25378;-63
2023/10/21 00:13:07;;;;;;;15.23;10.63;;;;;;;8.28;100.00;98346.53;1730823;82;25372;-63
2023/10/21 00:15:34;;;;;;;14.43;10.23;;;;;;;8.28;100.00;98338.45;1730705;82;25545;-62
2023/10/21 00:18:00;;;;;;;17.17;9.83;;;;;;;8.27;100.00;98333.61;1730809;82;25394;-63
2023/10/21 00:20:27;;;;;;;19.07;10.15;;;;;;;8.27;100.00;98347.64;1730802;82;27200;-64
2023/10/21 00:22:53;;;;;;;22.45;10.53;;;;;;;8.27;100.00;98344.38;1730748;82;25715;-63
2023/10/21 00:25:20;;;;;;;15.00;10.75;;;;;;;8.27;100.00;98340.91;1730808;82;25390;-63
2023/10/21 00:27:47;;;;;;;18.60;10.75;;;;;;;8.29;100.00;98348.08;1730764;82;25675;-64
2023/10/21 00:30:13;;;;;;;16.90;9.85;;;;;;;8.28;100.00;98358.66;1712014;82;25412;-63
2023/10/21 00:32:40;;;;;;;18.77;10.75;;;;;;;8.26;100.00;98365.72;1730866;82;27974;-63
2023/10/21 00:35:08;;;;;;;18.32;11.40;;;;;;;8.26;100.00;98375.16;1730746;82;25384;-63
2023/10/21 00:37:35;;;;;;;16.25;11.30;;;;;;;8.27;100.00;98375.92;1730829;82;25398;-63
2023/10/21 00:40:03;;;;;;;17.30;10.80;;;;;;;8.28;100.00;98374.24;1730862;82;26263;-62
2023/10/21 00:42:30;;;;;;;21.70;11.50;;;;;;;8.29;100.00;98375.02;1730910;82;25615;-62
2023/10/21 00:44:57;;;;;;;14.43;10.68;;;;;;;8.29;100.00;98369.63;1730800;82;27420;-63
2023/10/21 00:47:23;;;;;;;19.02;11.45;;;;;;;8.30;100.00;98367.17;1730724;82;25557;-63
2023/10/21 00:49:50;;;;;;;17.45;11.08;;;;;;;8.30;100.00;98372.56;1730951;82;25499;-63
2023/10/21 00:52:16;;;;;;;17.52;11.97;;;;;;;8.31;100.00;98372.77;1730882;82;25625;-63
2023/10/21 00:54:43;;;;;;;17.02;11.50;;;;;;;8.32;100.00;98363.00;1730988;82;25572;-63
2023/10/21 00:57:09;;;;;;;16.52;12.10;;;;;;;8.31;100.00;98357.41;1730935;82;27336;-62
2023/10/21 00:59:36;;;;;;;20.32;12.03;;;;;;;8.31;100.00;98362.80;1730847;82;25550;-63
2023/10/21 01:02:04;;;;;;;20.57;11.83;;;;;;;8.31;100.00;98357.41;1730955;82;25601;-62
2023/10/21 01:04:31;;;;;;;17.62;11.25;;;;;;;8.33;100.00;98363.80;1730914;82;25615;-62
2023/10/21 01:06:57;;;;;;;16.60;11.57;;;;;;;8.33;100.00;98367.27;1730956;82;25466;-62
2023/10/21 01:09:26;;;;;;;20.55;12.73;;;;;;;8.35;100.00;98375.80;1730916;82;28108;-62
2023/10/21 01:11:52;;;;;;;20.70;11.78;;;;;;;8.37;100.00;98376.80;1730902;82;25702;-62
2023/10/21 01:14:19;;;;;;;18.55;11.65;;;;;;;8.37;100.00;98381.62;1730932;82;25610;-63
2023/10/21 01:16:46;;;;;;;16.93;12.15;;;;;;;8.38;100.00;98383.77;1730852;82;26156;-62
2023/10/21 01:19:13;;;;;;;18.32;11.80;;;;;;;8.38;100.00;98380.50;1730980;82;25634;-63
2023/10/21 01:21:40;;;;;;;19.15;12.58;;;;;;;8.39;100.00;98382.63;1730947;82;27332;-63
2023/10/21 01:24:08;;;;;;;20.77;12.68;;;;;;;8.38;100.00;98377.81;1730876;82;25623;-62
2023/10/21 01:26:35;;;;;;;17.90;11.97;;;;;;;8.39;100.00;98366.47;1730953;82;25379;-63
2023/10/21 01:29:09;;;;;;;19.37;12.63;;;;;;;8.39;100.00;98363.23;1730892;82;25802;-62
2023/10/21 01:31:35;;;;;;;16.02;11.73;;;;;;;8.41;100.00;98377.67;1730896;82;25552;-62
2023/10/21 01:34:02;;;;;;;19.73;11.68;;;;;;;8.40;100.00;98379.59;1730931;82;27324;-62
2023/10/21 01:36:28;;;;;;;19.17;12.70;;;;;;;8.41;100.00;98387.11;1730897;82;25367;-62
2023/10/21 01:38:55;;;;;;;19.23;12.03;;;;;;;8.42;100.00;98391.38;1730949;82;25430;-62
2023/10/21 01:41:22;;;;;;;17.92;12.23;;;;;;;8.45;100.00;98379.95;1730934;82;26264;-63
2023/10/21 01:43:49;;;;;;;20.00;12.80;;;;;;;8.46;100.00;98386.89;1730996;82;25559;-63
2023/10/21 01:46:16;;;;;;;17.37;12.37;;;;;;;8.47;100.00;98378.27;1730973;82;27900;-62
2023/10/21 01:48:43;;;;;;;18.37;12.98;;;;;;;8.45;100.00;98378.61;1730889;82;25748;-63
2023/10/21 01:51:12;;;;;;;20.43;12.90;;;;;;;8.46;100.00;98374.00;1730955;82;25445;-63
2023/10/21 01:53:39;;;;;;;21.90;13.20;;;;;;;8.45;100.00;98369.18;1730857;82;25972;-63
2023/10/21 01:56:06;;;;;;;18.15;12.63;;;;;;;8.47;100.00;98381.74;1730928;82;25396;-63
2023/10/21 01:58:32;;;;;;;19.07;12.37;;;;;;;8.46;100.00;98380.73;1730880;82;27330;-63
2023/10/21 02:01:03;;;;;;;18.50;12.33;;;;;;;8.47;100.00;98391.75;1730779;82;25703;-62
2023/10/21 02:03:31;;;;;;;18.98;13.75;;;;;;;8.47;100.00;98379.62;1727882;82;25399;-63
2023/10/21 02:05:58;;;;;;;20.95;13.05;;;;;;;8.47;100.00;98383.09;1730865;82;25633;-61
2023/10/21 02:08:24;;;;;;;18.55;13.10;;;;;;;8.49;100.00;98382.75;1730936;82;25647;-63
2023/10/21 02:10:52;;;;;;;20.80;12.78;;;;;;;8.49;100.00;98387.57;1735030;82;27039;-60
2023/10/21 02:13:19;;;;;;;16.95;12.60;;;;;;;8.49;100.00;98386.80;1741303;82;25647;-63
2023/10/21 02:15:46;;;;;;;19.40;12.78;;;;;;;8.49;100.00;98384.87;1741397;81;25457;-62
2023/10/21 02:18:12;;;;;;;19.90;13.68;;;;;;;8.51;100.00;98396.66;1714140;82;25651;-63
2023/10/21 02:20:39;;;;;;;19.50;13.20;;;;;;;8.50;100.00;98388.38;1741404;81;25551;-63
2023/10/21 02:23:05;;;;;;;16.17;11.97;;;;;;;8.51;100.00;98393.97;1741385;82;27970;-63
2023/10/21 02:25:33;;;;;;;20.08;13.60;;;;;;;8.50;100.00;98389.72;1741280;82;25458;-63
2023/10/21 02:28:02;;;;;;;20.15;13.58;;;;;;;8.50;100.00;98383.76;1741397;82;25571;-61
2023/10/21 02:30:29;;;;;;;19.45;13.60;;;;;;;8.52;100.00;98394.98;1741456;82;25625;-62
2023/10/21 02:32:56;;;;;;;22.13;13.78;;;;;;;8.53;100.00;98405.19;1741387;82;25473;-62
2023/10/21 02:35:23;;;;;;;20.52;13.85;;;;;;;8.51;100.00;98392.08;1741443;82;27331;-61
2023/10/21 02:37:50;;;;;;;22.50;14.03;;;;;;;8.51;100.00;98385.34;1741242;82;25783;-62
2023/10/21 02:40:17;;;;;;;20.90;13.30;;;;;;;8.53;100.00;98384.97;1741361;81;25528;-63
2023/10/21 02:42:45;;;;;;;23.15;13.18;;;;;;;8.53;100.00;98392.52;1741433;82;25633;-63
2023/10/21 02:45:12;;;;;;;18.80;13.40;;;;;;;8.52;100.00;98399.02;1741394;82;25614;-62
2023/10/21 02:47:39;;;;;;;17.85;13.22;;;;;;;8.52;100.00;98413.84;1741339;82;27347;-63
2023/10/21 02:50:08;;;;;;;17.23;13.48;;;;;;;8.54;100.00;98416.20;1741268;81;25380;-62
2023/10/21 02:52:38;;;;;;;16.95;12.63;;;;;;;8.54;100.00;98415.63;1741469;82;25402;-63
2023/10/21 02:55:06;;;;;;;19.87;13.53;;;;;;;8.55;100.00;98411.81;1741333;82;25620;-60
2023/10/21 02:57:34;;;;;;;19.13;12.80;;;;;;;8.56;100.00;98428.77;1741586;82;25394;-62
2023/10/21 03:00:04;;;;;;;20.95;13.10;;;;;;;8.58;100.00;98413.03;1741351;82;27262;-61
2023/10/21 03:02:31;;;;;;;25.82;15.00;;;;;;;8.58;100.00;98408.98;1741216;82;25699;-64
2023/10/21 03:04:58;;;;;;;21.15;14.25;;;;;;;8.59;100.00;98406.53;1741365;81;25394;-63
2023/10/21 03:07:25;;;;;;;18.70;13.30;;;;;;;8.60;100.00;98406.76;1741316;81;25690;-63
2023/10/21 03:09:52;;;;;;;20.50;13.55;;;;;;;8.60;100.00;98397.33;1741345;82;25411;-63
2023/10/21 03:12:19;;;;;;;18.67;12.55;;;;;;;8.61;100.00;98390.79;1732025;82;27681;-62
2023/10/21 03:14:46;;;;;;;19.32;13.83;;;;;;;8.60;100.00;98387.89;1730777;81;25477;-64
2023/10/21 03:17:14;;;;;;;19.65;13.60;;;;;;;8.62;100.00;98398.33;1730910;82;25572;-63
2023/10/21 03:19:41;;;;;;;15.95;12.70;;;;;;;8.61;100.00;98400.22;1730780;82;26197;-63
2023/10/21 03:22:08;;;;;;;17.35;12.40;;;;;;;8.62;100.00;98406.42;1730888;82;25431;-62
2023/10/21 03:24:34;;;;;;;21.20;14.40;;;;;;;8.60;100.00;98410.23;1730847;82;28443;-62
2023/10/21 03:27:02;;;;;;;16.60;12.53;;;;;;;8.61;100.00;98411.00;1730775;82;25608;-63
2023/10/21 03:29:29;;;;;;;19.35;12.65;;;;;;;8.62;100.00;98406.42;1730809;82;25552;-62
2023/10/21 03:31:56;;;;;;;20.15;13.53;;;;;;;8.61;100.00;98394.84;1730837;82;25619;-61
2023/10/21 03:34:22;;;;;;;16.80;12.58;;;;;;;8.61;100.00;98397.53;1730872;82;25672;-62
2023/10/21 03:36:49;;;;;;;19.25;12.45;;;;;;;8.63;100.00;98403.93;1730867;82;27685;-62
2023/10/21 03:39:15;;;;;;;17.37;12.05;;;;;;;8.63;100.00;98410.67;1730705;82;25614;-62
2023/10/21 03:41:42;;;;;;;18.98;12.78;;;;;;;8.63;100.00;98413.36;1730832;82;25426;-62
2023/10/21 03:44:09;;;;;;;17.98;13.08;;;;;;;8.64;100.00;98416.29;1730815;82;25943;-61
2023/10/21 03:46:36;;;;;;;20.10;12.33;;;;;;;8.65;100.00;98413.80;1730856;82;25391;-62
2023/10/21 03:49:04;;;;;;;16.30;12.25;;;;;;;8.65;100.00;98405.71;1730792;82;28058;-62
2023/10/21 03:51:31;;;;;;;18.60;13.78;;;;;;;8.66;100.00;98406.72;1730725;82;25596;-63
2023/10/21 03:53:57;;;;;;;19.55;12.93;;;;;;;8.66;100.00;98416.73;1730916;82;25607;-62
2023/10/21 03:56:25;;;;;;;17.73;12.63;;;;;;;8.65;100.00;98417.30;1730780;82;25644;-62
2023/10/21 03:58:51;;;;;;;17.87;12.43;;;;;;;8.66;100.00;98434.24;1730811;82;26871;-63
2023/10/21 04:01:20;;;;;;;16.40;12.30;;;;;;;8.66;100.00;98431.55;1730817;82;27345;-62
2023/10/21 04:03:47;;;;;;;18.15;12.75;;;;;;;8.67;100.00;98443.91;1730726;82;25556;-62
2023/10/21 04:06:15;;;;;;;18.65;12.95;;;;;;;8.67;100.00;98441.99;1730829;82;25631;-64
2023/10/21 04:08:42;;;;;;;18.27;12.78;;;;;;;8.67;100.00;98436.60;1731079;82;25629;-62
2023/10/21 04:11:09;;;;;;;17.90;12.75;;;;;;;8.68;100.00;98437.38;1733674;82;25386;-63
2023/10/21 04:13:36;;;;;;;19.73;13.05;;;;;;;8.68;100.00;98422.55;1741298;82;26824;-62
2023/10/21 04:16:03;;;;;;;18.95;13.00;;;;;;;8.68;100.00;98420.63;1741178;82;25403;-61
2023/10/21 04:18:30;;;;;;;20.30;12.98;;;;;;;8.68;100.00;98419.86;1741289;81;25470;-62
2023/10/21 04:20:57;;;;;;;17.67;11.78;;;;;;;8.67;100.00;98429.86;1741340;82;25641;-61
2023/10/21 04:23:24;;;;;;;22.50;14.50;;;;;;;8.68;100.00;98431.98;1741335;81;25568;-62
2023/10/21 04:25:51;;;;;;;16.30;12.82;;;;;;;8.68;100.00;98440.84;1741308;82;27880;-62
2023/10/21 04:28:19;;;;;;;16.77;12.43;;;;;;;8.68;100.00;98437.38;1741232;82;25450;-62
2023/10/21 04:30:46;;;;;;;18.00;12.78;;;;;;;8.68;100.00;98437.38;1741320;82;25399;-62
2023/10/21 04:33:13;;;;;;;16.97;13.10;;;;;;;8.69;100.00;98438.39;1741267;82;25617;-62
2023/10/21 04:35:40;;;;;;;18.37;12.45;;;;;;;8.70;100.00;98422.99;1741314;82;25635;-62
2023/10/21 04:38:09;;;;;;;19.37;12.53;;;;;;;8.71;100.00;98427.27;1741257;82;27266;-61
2023/10/21 04:40:36;;;;;;;21.65;12.68;;;;;;;8.71;100.00;98434.78;1741203;82;25446;-63
2023/10/21 04:43:03;;;;;;;16.57;13.20;;;;;;;8.72;100.00;98441.75;1741297;81;25485;-61
2023/10/21 04:45:30;;;;;;;16.35;12.30;;;;;;;8.73;100.00;98441.18;1741254;82;25621;-63
2023/10/21 04:47:57;;;;;;;18.45;13.28;;;;;;;8.75;100.00;98439.73;1741322;82;25581;-64
2023/10/21 04:50:24;;;;;;;18.82;13.10;;;;;;;8.76;100.00;98448.59;1741283;82;27398;-62
2023/10/21 04:52:50;;;;;;;18.32;13.10;;;;;;;8.77;100.00;98462.30;1741198;82;25210;-63
2023/10/21 04:55:18;;;;;;;16.73;12.90;;;;;;;8.77;100.00;98465.00;1741304;81;25394;-63
2023/10/21 04:57:44;;;;;;;17.37;13.05;;;;;;;8.78;100.00;98474.09;1741235;82;25627;-62
2023/10/21 05:00:14;;;;;;;19.23;13.60;;;;;;;8.78;100.00;98474.09;1741319;81;25612;-63
2023/10/21 05:02:41;;;;;;;18.30;12.15;;;;;;;8.79;100.00;98485.66;1741260;82;27338;-63
2023/10/21 05:05:09;;;;;;;17.80;12.23;;;;;;;8.81;100.00;98498.23;1741188;82;25683;-63
2023/10/21 05:07:36;;;;;;;16.17;12.30;;;;;;;8.82;100.00;98498.45;1741262;82;25356;-63
2023/10/21 05:10:04;;;;;;;18.02;12.47;;;;;;;8.81;100.00;98489.36;1741249;81;25979;-62
2023/10/21 05:12:31;;;;;;;15.43;12.23;;;;;;;8.81;100.00;98484.75;1733899;82;25836;-63
2023/10/21 05:14:57;;;;;;;22.85;13.62;;;;;;;8.81;100.00;98475.88;1730871;82;28396;-64
2023/10/21 05:17:24;;;;;;;19.23;12.43;;;;;;;8.79;100.00;98487.78;1730682;82;25556;-64
2023/10/21 05:19:51;;;;;;;22.95;13.28;;;;;;;8.81;100.00;98493.41;1730847;82;25414;-63
2023/10/21 05:22:17;;;;;;;16.25;12.93;;;;;;;8.82;100.00;98493.06;1730758;82;26172;-64
2023/10/21 05:24:44;;;;;;;18.62;13.62;;;;;;;8.82;100.00;98494.95;1730797;82;25627;-64
2023/10/21 05:27:11;;;;;;;25.50;14.15;;;;;;;8.82;100.00;98523.27;1730781;82;27929;-63
2023/10/21 05:29:37;;;;;;;19.85;13.75;;;;;;;8.80;100.00;98519.56;1730680;82;25651;-63
2023/10/21 05:32:05;;;;;;;20.15;14.13;;;;;;;8.81;100.00;98514.40;1730785;82;25659;-63
2023/10/21 05:34:32;;;;;;;18.60;13.08;;;;;;;8.84;100.00;98516.42;1730726;82;26279;-63
2023/10/21 05:36:58;;;;;;;19.55;14.13;;;;;;;8.85;100.00;98512.58;1730948;81;25621;-64
2023/10/21 05:39:25;;;;;;;17.90;14.05;;;;;;;8.87;100.00;98514.40;1730880;82;27670;-63
2023/10/21 05:41:52;;;;;;;20.45;14.20;;;;;;;8.88;100.00;98516.52;1730902;82;25653;-64
2023/10/21 05:44:19;;;;;;;20.02;14.10;;;;;;;8.89;100.00;98519.45;1730826;82;25540;-63
2023/10/21 05:46:45;;;;;;;19.50;13.15;;;;;;;8.91;100.00;98517.20;1730875;81;25624;-64
2023/10/21 05:49:12;;;;;;;20.65;14.35;;;;;;;8.92;100.00;98523.59;1730917;82;25585;-63
2023/10/21 05:51:39;;;;;;;19.70;14.20;;;;;;;8.93;100.00;98527.07;1730903;82;27799;-63
2023/10/21 05:54:06;;;;;;;20.45;13.32;;;;;;;8.94;100.00;98518.64;1730807;82;25419;-64
2023/10/21 05:56:33;;;;;;;19.15;14.55;;;;;;;8.95;100.00;98512.68;1730877;82;25462;-63
2023/10/21 05:58:59;;;;;;;21.30;13.95;;;;;;;8.95;100.00;98522.12;1730954;82;25623;-63
2023/10/21 06:01:26;;;;;;;19.30;13.43;;;;;;;8.95;100.00;98528.29;1730926;82;25391;-63
2023/10/21 06:03:53;;;;;;;19.15;13.60;;;;;;;8.96;100.00;98532.56;1730903;82;27406;-62
2023/10/21 06:06:19;;;;;;;21.80;14.47;;;;;;;8.98;100.00;98530.31;1730819;82;25600;-61
2023/10/21 06:08:46;;;;;;;21.10;14.38;;;;;;;8.99;100.00;98524.38;1730884;82;25544;-62
2023/10/21 06:11:13;;;;;;;19.45;13.83;;;;;;;9.01;100.00;98518.61;1730821;82;25578;-61
2023/10/21 06:13:39;;;;;;;19.92;14.38;;;;;;;9.01;100.00;98532.90;1730966;82;25444;-64
2023/10/21 06:16:08;;;;;;;18.98;14.18;;;;;;;9.02;100.00;98545.81;1730885;82;27332;-61
2023/10/21 06:18:36;;;;;;;;;;;;;;;9.02;100.00;98556.59;1733329;82;25665;-63
2023/10/21 06:21:04;;;;;;;21.73;13.62;;;;;;;9.04;100.00;98555.69;1730915;82;25634;-63
2023/10/21 06:23:31;;;;;;;21.85;14.93;;;;;;;9.05;100.00;98566.72;1730843;82;25500;-64
2023/10/21 06:25:57;;;;;;;21.57;15.38;;;;;;;9.05;100.00;98560.75;1730916;82;25568;-62
2023/10/21 06:28:24;;;;;;;19.42;14.85;;;;;;;9.06;100.00;98560.98;1730920;82;27910;-61
2023/10/21 06:30:50;;;;;;;24.18;15.48;;;;;;;9.10;100.00;98557.03;1730820;82;25467;-63
2023/10/21 06:33:17;;;;;;;23.52;15.72;;;;;;;9.11;100.00;98547.26;1730964;82;25375;-63
2023/10/21 06:35:45;;;;;;;26.07;15.30;;;;;;;9.14;100.00;98549.82;1730859;82;26285;-63
2023/10/21 06:38:11;;;;;;;19.23;14.55;;;;;;;9.16;100.00;98555.69;1730870;82;25396;-63
2023/10/21 06:40:38;;;;;;;24.90;15.50;;;;;;;9.19;100.00;98564.98;1730858;82;27349;-64
2023/10/21 06:43:05;;;;;;;19.50;14.93;;;;;;;9.21;100.00;98570.82;1730793;82;25544;-64
2023/10/21 06:45:32;;;;;;;23.52;15.90;;;;;;;9.22;100.00;98572.41;1730881;82;25431;-63
2023/10/21 06:48:01;;;;;;;20.70;14.95;;;;;;;9.24;100.00;98581.71;1730821;82;25531;-63
2023/10/21 06:50:29;;;;;;;22.00;15.78;;;;;;;9.27;100.00;98583.73;1730895;81;25398;-63
2023/10/21 06:52:55;;;;;;;22.42;16.07;;;;;;;9.30;100.00;98582.28;1730855;82;27386;-65
2023/10/21 06:55:21;;;;;;;33.40;16.25;;;;;;;9.32;100.00;98584.06;1730779;82;25693;-64
2023/10/21 06:57:53;;;;;;;23.15;17.67;;;;;;;9.36;100.00;98584.94;1730869;82;25548;-64
2023/10/21 07:00:20;;;;;;;26.37;17.10;;;;;;;9.36;100.00;98576.84;1730816;82;25593;-63
2023/10/21 07:02:46;;;;;;;29.48;17.60;;;;;;;9.39;100.00;98594.28;1730872;82;25424;-63
2023/10/21 07:05:14;;;;;;;23.00;17.27;;;;;;;9.43;100.00;98587.86;1730882;82;27283;-63
2023/10/21 07:07:42;;;;;;;26.20;17.62;;;;;;;9.42;100.00;98602.47;1730779;82;25672;-63
2023/10/21 07:10:09;;;;;;;25.12;17.02;;;;;;;9.44;100.00;98611.01;1730899;82;25404;-63
2023/10/21 07:12:38;;;;;;;23.12;17.50;;;;;;;9.48;100.00;98617.31;1735644;82;26310;-64
2023/10/21 07:15:09;;;;;;;26.62;18.05;;;;;;;9.52;100.00;98629.55;1714546;82;25465;-63
2023/10/21 07:17:36;;;;;;;29.42;19.55;;;;;;;9.52;100.00;98630.33;1741316;82;27173;-63
2023/10/21 07:20:05;;;;;;;28.52;19.10;;;;;;;9.55;100.00;98639.64;1741221;82;25554;-64
2023/10/21 07:22:32;;;;;;;32.65;18.65;;;;;;;9.56;100.00;98641.23;1741600;82;25481;-63
2023/10/21 07:24:59;;;;;;;26.05;18.77;;;;;;;9.59;100.00;98639.20;1741317;82;25624;-63
2023/10/21 07:27:26;;;;;;;26.17;19.82;;;;;;;9.61;100.00;98638.86;1741347;82;25454;-63
2023/10/21 07:29:55;;;;;;;25.95;19.02;;;;;;;9.63;100.00;98630.63;1741292;82;28115;-62
2023/10/21 07:32:23;;;;;;;26.77;18.50;;;;;;;9.67;100.00;98631.52;1741504;82;25612;-62
2023/10/21 07:34:51;;;;;;;25.23;18.62;;;;;;;9.72;100.00;98633.98;1741430;82;25630;-64
2023/10/21 07:37:19;;;;;;;30.97;18.10;;;;;;;9.77;100.00;98636.98;1741278;82;26605;-62
2023/10/21 07:39:46;;;;;;;29.55;19.23;;;;;;;9.80;100.00;98651.16;1741405;82;25211;-62
2023/10/21 07:42:14;;;;;;;31.82;19.85;;;;;;;9.86;100.00;98655.77;1741304;82;27676;-60
2023/10/21 07:44:41;;;;;;;28.52;19.52;;;;;;;9.88;100.00;98651.58;1741240;82;25612;-61
2023/10/21 07:47:09;;;;;;;27.67;19.52;;;;;;;9.92;100.00;98662.47;1741314;82;25599;-60
2023/10/21 07:49:35;;;;;;;27.13;18.50;;;;;;;9.93;100.00;98658.65;1741249;82;25626;-60
2023/10/21 07:52:05;;;;;;;27.02;19.65;;;;;;;9.97;100.00;98643.89;1741353;81;25480;-59
2023/10/21 07:54:32;;;;;;;27.70;19.73;;;;;;;9.99;100.00;98642.40;1741451;82;27304;-60
2023/10/21 07:56:58;;;;;;;31.00;19.92;;;;;;;10.01;100.00;98639.36;1741222;82;25650;-59
2023/10/21 07:59:27;;;;;;;27.17;20.12;;;;;;;10.00;100.00;98641.28;1741263;82;25627;-61
2023/10/21 08:01:54;;;;;;;33.53;19.70;;;;;;;10.02;100.00;98643.64;1741253;82;25973;-60
2023/10/21 08:04:21;;;;;;;27.95;19.50;;;;;;;10.02;100.00;98647.69;1741275;82;25410;-59
2023/10/21 08:06:47;;;;;;;29.23;19.35;;;;;;;10.03;100.00;98661.44;1741294;82;27242;-60
2023/10/21 08:09:17;;;;;;;25.80;19.55;;;;;;;10.05;100.00;98668.63;1741181;82;25560;-61
2023/10/21 08:11:46;;;;;;;28.35;20.23;;;;;;;10.06;100.00;98670.98;1741297;82;25390;-59
2023/10/21 08:14:14;;;;;;;26.52;19.73;;;;;;;10.08;100.00;98660.61;1741355;82;25776;-60
2023/10/21 08:16:42;;;;;;;27.90;19.70;;;;;;;10.14;100.00;98650.91;1741287;82;25571;-62
2023/10/21 08:19:09;;;;;;;27.35;21.27;;;;;;;10.21;100.00;98656.48;1741503;82;27396;-62
2023/10/21 08:21:36;;;;;;;30.60;20.95;;;;;;;10.25;100.00;98656.03;1741180;82;25441;-62
2023/10/21 08:24:07;;;;;;;28.38;19.95;;;;;;;10.27;100.00;98650.48;1741296;81;25516;-62
2023/10/21 08:26:34;;;;;;;25.48;19.67;;;;;;;10.31;100.00;98671.41;1741259;82;26572;-64
2023/10/21 08:29:01;;;;;;;28.75;20.68;;;;;;;10.34;100.00;98689.67;1741310;82;25603;-62
2023/10/21 08:31:28;;;;;;;29.10;21.50;;;;;;;10.34;100.00;98696.44;1741251;82;27688;-61
2023/10/21 08:33:55;;;;;;;31.00;19.82;;;;;;;10.34;100.00;98693.16;1741181;82;25543;-61
2023/10/21 08:36:22;;;;;;;29.67;20.08;;;;;;;10.37;100.00;98704.63;1741295;81;25594;-62
2023/10/21 08:38:52;;;;;;;29.02;19.85;;;;;;;10.38;100.00;98698.66;1741098;82;25624;-60
2023/10/21 08:41:19;;;;;;;29.57;21.47;;;;;;;10.42;100.00;98704.92;1740765;82;25953;-60
2023/10/21 08:43:49;;;;;;;26.93;20.45;;;;;;;10.45;100.00;98707.75;1740781;82;27662;-61
2023/10/21 08:46:17;;;;;;;;;;;;;;;10.49;100.00;98697.56;1743767;82;25655;-60
2023/10/21 08:48:47;;;;;;;28.67;20.43;;;;;;;10.52;100.00;98694.98;1741285;82;25647;-60
2023/10/21 08:51:20;;;;;;;33.88;22.30;;;;;;;10.56;100.00;98695.07;1741125;82;25610;-61
2023/10/21 08:53:52;;;;;;;27.42;20.88;;;;;;;10.59;100.00;98701.92;1741293;82;25566;-61
2023/10/21 08:56:18;;;;;;;28.20;20.97;;;;;;;10.62;100.00;98699.07;1741298;82;27320;-62
2023/10/21 08:58:46;;;;;;;25.17;20.20;;;;;;;10.61;100.00;98711.03;1741137;82;25632;-62
2023/10/21 09:01:16;;;;;;;27.42;21.57;;;;;;;10.62;100.00;98721.51;1714406;82;25426;-61
2023/10/21 09:03:43;;;;;;;31.48;20.92;;;;;;;10.61;100.00;98717.22;1741218;82;25981;-59
2023/10/21 09:06:12;;;;;;;28.07;20.60;;;;;;;10.63;100.00;98719.00;1741292;81;25624;-61
2023/10/21 09:08:43;;;;;;;28.42;19.92;;;;;;;10.65;100.00;98728.13;1741476;82;27312;-61
2023/10/21 09:11:18;;;;;;;28.20;20.00;;;;;;;10.64;100.00;98722.48;1741311;81;25615;-61
2023/10/21 09:13:48;;;;;;;27.07;19.67;;;;;;;10.63;100.00;98731.17;1748260;81;25628;-62
2023/10/21 09:16:25;;;;;;;26.23;19.95;;;;;;;10.65;100.00;98749.18;1752056;81;26208;-60
2023/10/21 09:19:05;;;;;;;26.30;20.62;;;;;;;10.65;100.00;98749.76;1752071;81;25563;-61
2023/10/21 09:21:43;;;;;;;28.27;19.48;;;;;;;10.65;100.00;98739.72;1752223;81;27847;-62
2023/10/21 09:24:14;;;;;;;23.62;18.75;;;;;;;10.65;100.00;98741.64;1751990;81;25622;-59
2023/10/21 09:26:47;;;;;;;26.68;20.02;;;;;;;10.68;100.00;98763.16;1752078;81;25579;-62
2023/10/21 09:29:20;;;;;;;25.55;19.10;;;;;;;10.68;100.00;98761.81;1752038;81;26407;-62
2023/10/21 09:31:55;;;;;;;28.95;20.95;;;;;;;10.72;100.00;98759.40;1752070;81;25678;-60
2023/10/21 09:34:33;;;;;;;30.75;21.85;;;;;;;10.74;100.00;98765.23;1752040;81;27356;-65
2023/10/21 09:37:03;;;;;;;30.45;21.15;;;;;;;10.76;100.00;98764.35;1751932;81;25618;-62
2023/10/21 09:39:33;;;;;;;26.48;20.10;;;;;;;10.78;100.00;98770.77;1752007;81;25607;-59
2023/10/21 09:42:03;;;;;;;25.72;19.15;;;;;;;10.80;100.00;98785.50;1752034;81;25568;-62
2023/10/21 09:44:34;;;;;;;33.33;21.30;;;;;;;10.81;100.00;98784.38;1752088;81;25461;-63
2023/10/21 09:47:04;;;;;;;27.77;19.57;;;;;;;10.85;100.00;98780.41;1751987;81;27188;-64
2023/10/21 09:49:39;;;;;;;22.70;17.67;;;;;;;10.85;100.00;98775.00;1751986;81;25575;-63
2023/10/21 09:52:11;;;;;;;25.45;18.35;;;;;;;10.87;100.00;98776.01;1752180;81;25622;-61
2023/10/21 09:54:58;;;;;;;25.90;18.20;;;;;;;10.91;100.00;98779.58;1752066;81;25607;-64
2023/10/21 09:57:26;;;;;;;25.92;18.57;;;;;;;10.94;100.00;98787.78;1751042;81;25452;-63
2023/10/21 09:59:56;;;;;;;22.73;17.85;;;;;;;10.97;100.00;98781.68;1752017;81;28011;-63
2023/10/21 10:02:26;;;;;;;26.02;17.82;;;;;;;11.00;100.00;98783.70;1726568;81;25648;-64
2023/10/21 10:04:54;;;;;;;24.23;18.70;;;;;;;11.03;100.00;98780.84;1752072;81;25572;-64
2023/10/21 10:07:21;;;;;;;26.25;18.70;;;;;;;11.06;100.00;98795.03;1751967;81;26650;-64
2023/10/21 10:09:51;;;;;;;27.82;19.15;;;;;;;11.09;100.00;98782.74;1752035;81;25437;-63
2023/10/21 10:12:32;;;;;;;26.02;18.23;;;;;;;11.12;100.00;98810.47;1752109;81;27378;-65
2023/10/21 10:15:00;;;;;;;28.60;18.42;;;;;;;11.14;100.00;98804.13;1750744;81;26012;-63
2023/10/21 10:17:51;;;;;;;27.22;19.87;;;;;;;11.17;100.00;98801.51;1751975;81;25589;-64
2023/10/21 10:20:24;;;;;;;25.00;19.10;;;;;;;11.21;100.00;98798.31;1751898;81;25640;-63
2023/10/21 10:23:02;;;;;;;27.32;20.40;;;;;;;11.27;100.00;98778.55;1752092;81;25467;-63
2023/10/21 10:25:40;;;;;;;26.68;20.17;;;;;;;11.34;100.00;98784.67;1751995;81;27350;-62
2023/10/21 10:28:19;;;;;;;28.47;20.62;;;;;;;11.44;100.00;98786.88;1750789;81;25542;-62
2023/10/21 10:30:49;;;;;;;27.52;21.25;;;;;;;11.53;100.00;98794.23;1750829;81;25554;-64
2023/10/21 10:33:33;;;;;;;30.43;20.40;;;;;;;11.62;100.00;98811.65;1752044;81;26368;-63
2023/10/21 10:36:06;;;;;;;33.50;22.07;;;;;;;11.66;100.00;98810.38;1752034;81;25457;-63
2023/10/21 10:38:45;;;;;;;34.05;23.67;;;;;;;11.90;100.00;98791.75;1752081;81;27334;-63
2023/10/21 10:41:18;;;;;;;34.78;25.45;;;;;;;12.84;100.00;98787.64;1752077;81;25562;-63
2023/10/21 10:43:54;;;;;;;35.63;26.68;;;;;;;13.39;100.00;98785.47;1752018;81;25413;-61
2023/10/21 10:46:24;;;;;;;34.10;25.75;;;;;;;13.77;100.00;98789.16;1751962;81;25627;-61
2023/10/21 10:48:52;;;;;;;36.50;27.20;;;;;;;14.06;100.00;98786.80;1751996;81;25677;-60
2023/10/21 10:51:28;;;;;;;40.55;31.48;;;;;;;14.46;100.00;98786.70;1751936;81;27181;-60
2023/10/21 10:53:57;;;;;;;39.23;30.55;;;;;;;15.01;100.00;98783.98;1750392;81;25456;-59
2023/10/21 10:56:27;;;;;;;28.32;23.55;;;;;;;15.59;100.00;98783.84;1751708;81;25618;-54
2023/10/21 10:58:55;;;;;;;26.80;20.92;;;;;;;16.09;100.00;98781.45;1751976;81;25583;-58
2023/10/21 11:01:27;;;;;;;29.65;18.32;;;;;;;16.35;100.00;98780.38;1751992;81;25626;-63
2023/10/21 11:03:57;;;;;;;23.47;18.05;;;;;;;16.42;100.00;98792.67;1751972;81;27903;-66
2023/10/21 11:06:35;;;;;;;22.55;17.87;;;;;;;16.53;100.00;98815.92;1751752;81;25400;-65
2023/10/21 11:09:07;;;;;;;21.12;17.37;;;;;;;16.90;100.00;98816.81;1751901;81;25421;-65
2023/10/21 11:11:53;;;;;;;19.17;15.38;;;;;;;17.16;100.00;98830.13;1752036;81;25605;-65
2023/10/21 11:14:18;;;;;;;18.37;14.05;;;;;;;17.33;94.56;98851.02;1739645;81;25426;-65
2023/10/21 11:16:50;;;;;;;18.55;14.63;;;;;;;17.46;95.25;98835.80;1731196;82;27714;-51
2023/10/21 11:19:17;;;;;;;21.20;14.33;;;;;;;17.69;95.17;98846.91;1730817;82;25495;-53
2023/10/21 11:21:51;;;;;;;19.77;14.85;;;;;;;18.12;95.87;98845.52;1730898;82;25395;-48